sensor_id;sensor_type;location;lat;lon;timestamp;P1;durP1;ratioP1;P2;durP2;ratioP2
47413;SDS011;33163;0.000;0.000;2023-03-14T00:01:49;8.55;;;2.25;;
47413;SDS011;33163;0.000;0.000;2023-03-14T00:04:16;7.97;;;2.65;;
47413;SDS011;33163;0.000;0.000;2023-03-14T00:06:43;10.23;;;2.33;;
47413;SDS011;33163;0.000;0.000;2023-03-14T00:09:11;9.35;;;2.58;;
47413;SDS011;33163;0.000;0.000;2023-03-14T00:11:40;10.88;;;2.58;;
47413;SDS011;33163;0.000;0.000;2023-03-14T00:14:06;6.30;;;2.65;;
47413;SDS011;33163;0.000;0.000;2023-03-14T00:16:33;10.05;;;2.30;;
47413;SDS011;33163;0.000;0.000;2023-03-14T00:19:00;13.20;;;3.08;;
47413;SDS011;33163;0.000;0.000;2023-03-14T00:21:27;15.27;;;2.97;;
47413;SDS011;33163;0.000;0.000;2023-03-14T00:23:54;7.35;;;2.47;;
47413;SDS011;33163;0.000;0.000;2023-03-14T00:26:21;8.75;;;2.88;;
47413;SDS011;33163;0.000;0.000;2023-03-14T00:28:52;9.75;;;2.45;;
47413;SDS011;33163;0.000;0.000;2023-03-14T00:31:19;8.88;;;2.53;;
47413;SDS011;33163;0.000;0.000;2023-03-14T00:33:46;8.32;;;2.13;;
47413;SDS011;33163;0.000;0.000;2023-03-14T00:36:13;8.13;;;2.17;;
47413;SDS011;33163;0.000;0.000;2023-03-14T00:38:42;8.63;;;2.20;;
47413;SDS011;33163;0.000;0.000;2023-03-14T00:41:10;10.10;;;2.83;;
47413;SDS011;33163;0.000;0.000;2023-03-14T00:43:39;6.38;;;2.10;;
47413;SDS011;33163;0.000;0.000;2023-03-14T00:46:07;9.35;;;2.33;;
47413;SDS011;33163;0.000;0.000;2023-03-14T00:48:34;10.45;;;2.20;;
47413;SDS011;33163;0.000;0.000;2023-03-14T00:51:01;9.05;;;2.10;;
47413;SDS011;33163;0.000;0.000;2023-03-14T00:53:28;8.95;;;2.60;;
47413;SDS011;33163;0.000;0.000;2023-03-14T00:55:55;10.48;;;2.10;;
47413;SDS011;33163;0.000;0.000;2023-03-14T00:58:22;7.10;;;2.50;;
47413;SDS011;33163;0.000;0.000;2023-03-14T01:00:49;7.15;;;3.00;;
47413;SDS011;33163;0.000;0.000;2023-03-14T01:03:17;8.27;;;2.20;;
47413;SDS011;33163;0.000;0.000;2023-03-14T01:05:43;14.02;;;2.70;;
47413;SDS011;33163;0.000;0.000;2023-03-14T01:08:10;12.38;;;2.55;;
47413;SDS011;33163;0.000;0.000;2023-03-14T01:10:38;11.48;;;2.65;;
47413;SDS011;33163;0.000;0.000;2023-03-14T01:13:06;10.40;;;2.60;;
47413;SDS011;33163;0.000;0.000;2023-03-14T01:15:33;6.82;;;2.28;;
47413;SDS011;33163;0.000;0.000;2023-03-14T01:18:00;8.02;;;2.40;;
47413;SDS011;33163;0.000;0.000;2023-03-14T01:20:28;10.70;;;2.30;;
47413;SDS011;33163;0.000;0.000;2023-03-14T01:22:55;10.57;;;2.80;;
47413;SDS011;33163;0.000;0.000;2023-03-14T01:25:22;11.30;;;2.40;;
47413;SDS011;33163;0.000;0.000;2023-03-14T01:27:48;7.38;;;2.17;;
47413;SDS011;33163;0.000;0.000;2023-03-14T01:30:15;10.13;;;2.78;;
47413;SDS011;33163;0.000;0.000;2023-03-14T01:32:42;10.75;;;2.42;;
47413;SDS011;33163;0.000;0.000;2023-03-14T01:35:09;9.02;;;2.30;;
47413;SDS011;33163;0.000;0.000;2023-03-14T01:37:37;10.93;;;2.67;;
47413;SDS011;33163;0.000;0.000;2023-03-14T01:40:04;11.90;;;2.63;;
47413;SDS011;33163;0.000;0.000;2023-03-14T01:42:31;9.63;;;2.58;;
47413;SDS011;33163;0.000;0.000;2023-03-14T01:44:59;8.27;;;2.58;;
47413;SDS011;33163;0.000;0.000;2023-03-14T01:47:27;5.35;;;2.00;;
47413;SDS011;33163;0.000;0.000;2023-03-14T01:49:55;6.75;;;1.83;;
47413;SDS011;33163;0.000;0.000;2023-03-14T01:52:26;6.25;;;2.00;;
47413;SDS011;33163;0.000;0.000;2023-03-14T01:54:58;9.55;;;2.30;;
47413;SDS011;33163;0.000;0.000;2023-03-14T01:57:30;9.20;;;2.47;;
47413;SDS011;33163;0.000;0.000;2023-03-14T02:00:03;9.20;;;2.53;;
47413;SDS011;33163;0.000;0.000;2023-03-14T02:05:03;9.57;;;2.50;;
47413;SDS011;33163;0.000;0.000;2023-03-14T02:07:32;8.35;;;2.20;;
47413;SDS011;33163;0.000;0.000;2023-03-14T02:10:04;9.35;;;2.30;;
47413;SDS011;33163;0.000;0.000;2023-03-14T02:12:32;8.82;;;2.45;;
47413;SDS011;33163;0.000;0.000;2023-03-14T02:15:00;11.80;;;2.67;;
47413;SDS011;33163;0.000;0.000;2023-03-14T02:17:27;6.30;;;2.38;;
47413;SDS011;33163;0.000;0.000;2023-03-14T02:20:07;7.43;;;2.38;;
47413;SDS011;33163;0.000;0.000;2023-03-14T02:22:42;9.35;;;2.08;;
47413;SDS011;33163;0.000;0.000;2023-03-14T02:25:14;6.85;;;1.60;;
47413;SDS011;33163;0.000;0.000;2023-03-14T02:27:47;7.93;;;1.92;;
47413;SDS011;33163;0.000;0.000;2023-03-14T02:30:14;10.93;;;2.22;;
47413;SDS011;33163;0.000;0.000;2023-03-14T02:32:46;5.32;;;1.70;;
47413;SDS011;33163;0.000;0.000;2023-03-14T02:35:15;6.97;;;1.73;;
47413;SDS011;33163;0.000;0.000;2023-03-14T02:37:46;9.13;;;2.10;;
47413;SDS011;33163;0.000;0.000;2023-03-14T02:40:17;8.95;;;2.60;;
47413;SDS011;33163;0.000;0.000;2023-03-14T02:42:44;7.88;;;2.33;;
47413;SDS011;33163;0.000;0.000;2023-03-14T02:45:29;6.22;;;1.70;;
47413;SDS011;33163;0.000;0.000;2023-03-14T02:48:02;9.27;;;2.60;;
47413;SDS011;33163;0.000;0.000;2023-03-14T02:50:32;5.15;;;2.05;;
47413;SDS011;33163;0.000;0.000;2023-03-14T02:53:00;6.95;;;2.17;;
47413;SDS011;33163;0.000;0.000;2023-03-14T02:55:29;7.88;;;1.98;;
47413;SDS011;33163;0.000;0.000;2023-03-14T02:57:56;7.75;;;1.83;;
47413;SDS011;33163;0.000;0.000;2023-03-14T03:00:23;5.90;;;1.83;;
47413;SDS011;33163;0.000;0.000;2023-03-14T03:02:51;7.65;;;2.33;;
47413;SDS011;33163;0.000;0.000;2023-03-14T03:05:18;8.75;;;2.22;;
47413;SDS011;33163;0.000;0.000;2023-03-14T03:07:44;7.22;;;2.03;;
47413;SDS011;33163;0.000;0.000;2023-03-14T03:10:11;7.05;;;1.83;;
47413;SDS011;33163;0.000;0.000;2023-03-14T03:12:38;6.55;;;1.70;;
47413;SDS011;33163;0.000;0.000;2023-03-14T03:15:05;7.20;;;1.83;;
47413;SDS011;33163;0.000;0.000;2023-03-14T03:17:33;9.07;;;2.30;;
47413;SDS011;33163;0.000;0.000;2023-03-14T03:20:01;6.15;;;1.92;;
47413;SDS011;33163;0.000;0.000;2023-03-14T03:22:29;4.57;;;1.60;;
47413;SDS011;33163;0.000;0.000;2023-03-14T03:24:56;4.78;;;1.80;;
47413;SDS011;33163;0.000;0.000;2023-03-14T03:27:23;8.63;;;1.73;;
47413;SDS011;33163;0.000;0.000;2023-03-14T03:29:50;7.03;;;2.10;;
47413;SDS011;33163;0.000;0.000;2023-03-14T03:32:16;6.63;;;2.10;;
47413;SDS011;33163;0.000;0.000;2023-03-14T03:34:46;7.60;;;2.05;;
47413;SDS011;33163;0.000;0.000;2023-03-14T03:37:14;9.30;;;2.45;;
47413;SDS011;33163;0.000;0.000;2023-03-14T03:39:41;9.35;;;1.95;;
47413;SDS011;33163;0.000;0.000;2023-03-14T03:42:08;7.80;;;1.90;;
47413;SDS011;33163;0.000;0.000;2023-03-14T03:44:34;8.30;;;2.05;;
47413;SDS011;33163;0.000;0.000;2023-03-14T03:47:01;5.15;;;1.67;;
47413;SDS011;33163;0.000;0.000;2023-03-14T03:49:28;5.25;;;1.90;;
47413;SDS011;33163;0.000;0.000;2023-03-14T03:51:55;10.65;;;2.15;;
47413;SDS011;33163;0.000;0.000;2023-03-14T03:54:23;7.03;;;1.73;;
47413;SDS011;33163;0.000;0.000;2023-03-14T03:56:50;12.43;;;2.70;;
47413;SDS011;33163;0.000;0.000;2023-03-14T03:59:17;6.05;;;2.10;;
47413;SDS011;33163;0.000;0.000;2023-03-14T04:01:44;8.90;;;2.05;;
47413;SDS011;33163;0.000;0.000;2023-03-14T04:04:11;6.30;;;2.53;;
47413;SDS011;33163;0.000;0.000;2023-03-14T04:06:38;5.20;;;1.90;;
47413;SDS011;33163;0.000;0.000;2023-03-14T04:09:06;6.05;;;1.52;;
47413;SDS011;33163;0.000;0.000;2023-03-14T04:11:34;8.02;;;2.33;;
47413;SDS011;33163;0.000;0.000;2023-03-14T04:14:01;7.93;;;2.00;;
47413;SDS011;33163;0.000;0.000;2023-03-14T04:16:31;6.45;;;1.70;;
47413;SDS011;33163;0.000;0.000;2023-03-14T04:18:58;5.93;;;1.92;;
47413;SDS011;33163;0.000;0.000;2023-03-14T04:21:25;10.68;;;2.17;;
47413;SDS011;33163;0.000;0.000;2023-03-14T04:23:51;7.35;;;1.73;;
47413;SDS011;33163;0.000;0.000;2023-03-14T04:26:18;4.45;;;1.55;;
47413;SDS011;33163;0.000;0.000;2023-03-14T04:28:46;4.60;;;1.70;;
47413;SDS011;33163;0.000;0.000;2023-03-14T04:31:14;10.50;;;2.22;;
47413;SDS011;33163;0.000;0.000;2023-03-14T04:33:43;8.75;;;1.85;;
47413;SDS011;33163;0.000;0.000;2023-03-14T04:36:10;6.70;;;1.63;;
47413;SDS011;33163;0.000;0.000;2023-03-14T04:38:37;7.65;;;2.15;;
47413;SDS011;33163;0.000;0.000;2023-03-14T04:41:04;5.30;;;1.92;;
47413;SDS011;33163;0.000;0.000;2023-03-14T04:43:31;6.45;;;1.83;;
47413;SDS011;33163;0.000;0.000;2023-03-14T04:46:00;7.30;;;1.77;;
47413;SDS011;33163;0.000;0.000;2023-03-14T04:48:27;8.32;;;1.60;;
47413;SDS011;33163;0.000;0.000;2023-03-14T04:50:57;3.72;;;1.27;;
47413;SDS011;33163;0.000;0.000;2023-03-14T04:53:23;7.68;;;1.90;;
47413;SDS011;33163;0.000;0.000;2023-03-14T04:55:50;4.97;;;1.63;;
47413;SDS011;33163;0.000;0.000;2023-03-14T04:58:19;4.00;;;1.42;;
47413;SDS011;33163;0.000;0.000;2023-03-14T05:00:47;6.40;;;1.98;;
47413;SDS011;33163;0.000;0.000;2023-03-14T05:03:16;6.78;;;1.75;;
47413;SDS011;33163;0.000;0.000;2023-03-14T05:05:43;5.25;;;1.88;;
47413;SDS011;33163;0.000;0.000;2023-03-14T05:08:11;5.97;;;1.88;;
47413;SDS011;33163;0.000;0.000;2023-03-14T05:10:38;7.68;;;1.52;;
47413;SDS011;33163;0.000;0.000;2023-03-14T05:13:04;6.93;;;1.90;;
47413;SDS011;33163;0.000;0.000;2023-03-14T05:15:31;2.78;;;1.27;;
47413;SDS011;33163;0.000;0.000;2023-03-14T05:17:58;6.28;;;1.63;;
47413;SDS011;33163;0.000;0.000;2023-03-14T05:20:26;4.97;;;1.42;;
47413;SDS011;33163;0.000;0.000;2023-03-14T05:22:53;3.50;;;1.02;;
47413;SDS011;33163;0.000;0.000;2023-03-14T05:25:19;4.93;;;1.25;;
47413;SDS011;33163;0.000;0.000;2023-03-14T05:27:46;4.38;;;1.60;;
47413;SDS011;33163;0.000;0.000;2023-03-14T05:30:13;4.75;;;1.60;;
47413;SDS011;33163;0.000;0.000;2023-03-14T05:32:40;5.55;;;1.60;;
47413;SDS011;33163;0.000;0.000;2023-03-14T05:35:07;6.32;;;2.00;;
47413;SDS011;33163;0.000;0.000;2023-03-14T05:37:35;5.65;;;1.45;;
47413;SDS011;33163;0.000;0.000;2023-03-14T05:40:03;3.40;;;1.38;;
47413;SDS011;33163;0.000;0.000;2023-03-14T05:42:31;6.22;;;1.77;;
47413;SDS011;33163;0.000;0.000;2023-03-14T05:44:58;4.95;;;1.73;;
47413;SDS011;33163;0.000;0.000;2023-03-14T05:47:24;4.00;;;1.50;;
47413;SDS011;33163;0.000;0.000;2023-03-14T05:49:51;4.10;;;1.20;;
47413;SDS011;33163;0.000;0.000;2023-03-14T05:52:18;4.47;;;1.45;;
47413;SDS011;33163;0.000;0.000;2023-03-14T05:54:47;5.10;;;1.25;;
47413;SDS011;33163;0.000;0.000;2023-03-14T05:57:13;5.60;;;1.20;;
47413;SDS011;33163;0.000;0.000;2023-03-14T05:59:40;4.82;;;1.23;;
47413;SDS011;33163;0.000;0.000;2023-03-14T06:02:07;6.22;;;1.85;;
47413;SDS011;33163;0.000;0.000;2023-03-14T06:04:34;4.22;;;1.42;;
47413;SDS011;33163;0.000;0.000;2023-03-14T06:07:00;3.50;;;1.30;;
47413;SDS011;33163;0.000;0.000;2023-03-14T06:09:27;3.58;;;1.42;;
47413;SDS011;33163;0.000;0.000;2023-03-14T06:11:55;4.75;;;1.45;;
47413;SDS011;33163;0.000;0.000;2023-03-14T06:14:22;6.75;;;1.20;;
47413;SDS011;33163;0.000;0.000;2023-03-14T06:16:49;4.00;;;1.40;;
47413;SDS011;33163;0.000;0.000;2023-03-14T06:19:18;6.30;;;1.10;;
47413;SDS011;33163;0.000;0.000;2023-03-14T06:21:45;5.47;;;1.90;;
47413;SDS011;33163;0.000;0.000;2023-03-14T06:24:12;5.00;;;1.30;;
47413;SDS011;33163;0.000;0.000;2023-03-14T06:26:39;5.95;;;1.50;;
47413;SDS011;33163;0.000;0.000;2023-03-14T06:29:07;5.43;;;1.30;;
47413;SDS011;33163;0.000;0.000;2023-03-14T06:31:34;4.75;;;0.98;;
47413;SDS011;33163;0.000;0.000;2023-03-14T06:34:01;4.78;;;1.48;;
47413;SDS011;33163;0.000;0.000;2023-03-14T06:36:27;6.97;;;1.30;;
47413;SDS011;33163;0.000;0.000;2023-03-14T06:38:54;6.82;;;1.45;;
47413;SDS011;33163;0.000;0.000;2023-03-14T06:41:21;3.03;;;1.10;;
47413;SDS011;33163;0.000;0.000;2023-03-14T06:43:50;5.15;;;1.40;;
47413;SDS011;33163;0.000;0.000;2023-03-14T06:46:19;7.55;;;1.30;;
47413;SDS011;33163;0.000;0.000;2023-03-14T06:48:45;5.30;;;1.45;;
47413;SDS011;33163;0.000;0.000;2023-03-14T06:51:12;7.80;;;1.25;;
47413;SDS011;33163;0.000;0.000;2023-03-14T06:53:39;6.40;;;1.33;;
47413;SDS011;33163;0.000;0.000;2023-03-14T06:56:06;3.33;;;0.95;;
47413;SDS011;33163;0.000;0.000;2023-03-14T06:58:33;4.00;;;1.30;;
47413;SDS011;33163;0.000;0.000;2023-03-14T07:01:00;5.18;;;1.40;;
47413;SDS011;33163;0.000;0.000;2023-03-14T07:03:28;4.88;;;1.40;;
47413;SDS011;33163;0.000;0.000;2023-03-14T07:05:55;4.63;;;1.67;;
47413;SDS011;33163;0.000;0.000;2023-03-14T07:08:22;5.18;;;1.30;;
47413;SDS011;33163;0.000;0.000;2023-03-14T07:10:48;6.93;;;1.50;;
47413;SDS011;33163;0.000;0.000;2023-03-14T07:13:15;10.25;;;1.88;;
47413;SDS011;33163;0.000;0.000;2023-03-14T07:15:42;9.38;;;1.80;;
47413;SDS011;33163;0.000;0.000;2023-03-14T07:18:09;8.65;;;2.30;;
47413;SDS011;33163;0.000;0.000;2023-03-14T07:20:37;10.00;;;1.90;;
47413;SDS011;33163;0.000;0.000;2023-03-14T07:23:05;6.50;;;2.00;;
47413;SDS011;33163;0.000;0.000;2023-03-14T07:25:31;6.63;;;1.40;;
47413;SDS011;33163;0.000;0.000;2023-03-14T07:27:58;5.47;;;1.20;;
47413;SDS011;33163;0.000;0.000;2023-03-14T07:30:25;7.45;;;1.70;;
47413;SDS011;33163;0.000;0.000;2023-03-14T07:32:51;5.00;;;1.00;;
47413;SDS011;33163;0.000;0.000;2023-03-14T07:35:18;5.25;;;1.42;;
47413;SDS011;33163;0.000;0.000;2023-03-14T07:37:46;3.28;;;1.27;;
47413;SDS011;33163;0.000;0.000;2023-03-14T07:40:13;6.53;;;1.40;;
47413;SDS011;33163;0.000;0.000;2023-03-14T07:42:40;5.80;;;1.52;;
47413;SDS011;33163;0.000;0.000;2023-03-14T07:45:08;3.63;;;1.60;;
47413;SDS011;33163;0.000;0.000;2023-03-14T07:47:35;4.30;;;1.35;;
47413;SDS011;33163;0.000;0.000;2023-03-14T07:50:02;7.80;;;1.30;;
47413;SDS011;33163;0.000;0.000;2023-03-14T07:52:30;7.20;;;1.65;;
47413;SDS011;33163;0.000;0.000;2023-03-14T07:54:58;5.68;;;1.52;;
47413;SDS011;33163;0.000;0.000;2023-03-14T07:57:25;6.75;;;1.45;;
47413;SDS011;33163;0.000;0.000;2023-03-14T07:59:52;6.30;;;1.05;;
47413;SDS011;33163;0.000;0.000;2023-03-14T08:02:19;5.38;;;1.27;;
47413;SDS011;33163;0.000;0.000;2023-03-14T08:04:47;2.90;;;1.10;;
47413;SDS011;33163;0.000;0.000;2023-03-14T08:07:14;3.60;;;1.20;;
47413;SDS011;33163;0.000;0.000;2023-03-14T08:09:40;3.75;;;1.25;;
47413;SDS011;33163;0.000;0.000;2023-03-14T08:12:09;5.75;;;1.50;;
47413;SDS011;33163;0.000;0.000;2023-03-14T08:14:35;3.88;;;1.05;;
47413;SDS011;33163;0.000;0.000;2023-03-14T08:17:02;6.25;;;1.42;;
47413;SDS011;33163;0.000;0.000;2023-03-14T08:19:29;4.70;;;1.48;;
47413;SDS011;33163;0.000;0.000;2023-03-14T08:21:56;2.15;;;0.93;;
47413;SDS011;33163;0.000;0.000;2023-03-14T08:24:23;4.28;;;1.23;;
47413;SDS011;33163;0.000;0.000;2023-03-14T08:26:50;4.30;;;1.15;;
47413;SDS011;33163;0.000;0.000;2023-03-14T08:29:18;6.45;;;1.80;;
47413;SDS011;33163;0.000;0.000;2023-03-14T08:31:44;4.63;;;1.20;;
47413;SDS011;33163;0.000;0.000;2023-03-14T08:34:11;5.22;;;1.17;;
47413;SDS011;33163;0.000;0.000;2023-03-14T08:36:38;3.50;;;1.10;;
47413;SDS011;33163;0.000;0.000;2023-03-14T08:39:05;2.40;;;1.00;;
47413;SDS011;33163;0.000;0.000;2023-03-14T08:41:32;2.15;;;0.93;;
47413;SDS011;33163;0.000;0.000;2023-03-14T08:44:05;3.83;;;1.13;;
47413;SDS011;33163;0.000;0.000;2023-03-14T08:46:33;4.78;;;1.15;;
47413;SDS011;33163;0.000;0.000;2023-03-14T08:49:00;4.22;;;1.20;;
47413;SDS011;33163;0.000;0.000;2023-03-14T08:51:27;4.63;;;1.08;;
47413;SDS011;33163;0.000;0.000;2023-03-14T08:53:54;6.65;;;1.40;;
47413;SDS011;33163;0.000;0.000;2023-03-14T08:56:21;5.97;;;1.30;;
47413;SDS011;33163;0.000;0.000;2023-03-14T08:58:47;3.28;;;1.35;;
47413;SDS011;33163;0.000;0.000;2023-03-14T09:01:14;5.40;;;1.48;;
47413;SDS011;33163;0.000;0.000;2023-03-14T09:03:42;11.13;;;1.92;;
47413;SDS011;33163;0.000;0.000;2023-03-14T09:06:09;5.00;;;1.40;;
47413;SDS011;33163;0.000;0.000;2023-03-14T09:08:36;6.45;;;1.85;;
47413;SDS011;33163;0.000;0.000;2023-03-14T09:11:05;4.47;;;1.10;;
47413;SDS011;33163;0.000;0.000;2023-03-14T09:13:33;6.05;;;1.42;;
47413;SDS011;33163;0.000;0.000;2023-03-14T09:16:00;3.83;;;1.42;;
47413;SDS011;33163;0.000;0.000;2023-03-14T09:18:27;6.78;;;1.20;;
47413;SDS011;33163;0.000;0.000;2023-03-14T09:20:56;5.28;;;1.52;;
47413;SDS011;33163;0.000;0.000;2023-03-14T09:23:22;6.00;;;1.67;;
47413;SDS011;33163;0.000;0.000;2023-03-14T09:25:53;7.57;;;1.73;;
47413;SDS011;33163;0.000;0.000;2023-03-14T09:28:21;7.40;;;2.30;;
47413;SDS011;33163;0.000;0.000;2023-03-14T09:30:47;5.88;;;1.77;;
47413;SDS011;33163;0.000;0.000;2023-03-14T09:33:14;5.88;;;1.40;;
47413;SDS011;33163;0.000;0.000;2023-03-14T09:35:41;4.47;;;1.38;;
47413;SDS011;33163;0.000;0.000;2023-03-14T09:38:09;5.68;;;1.83;;
47413;SDS011;33163;0.000;0.000;2023-03-14T09:40:37;5.22;;;1.73;;
47413;SDS011;33163;0.000;0.000;2023-03-14T09:43:04;10.43;;;2.17;;
47413;SDS011;33163;0.000;0.000;2023-03-14T09:45:32;6.80;;;1.83;;
47413;SDS011;33163;0.000;0.000;2023-03-14T09:48:01;6.25;;;1.50;;
47413;SDS011;33163;0.000;0.000;2023-03-14T09:50:31;5.82;;;1.55;;
47413;SDS011;33163;0.000;0.000;2023-03-14T09:53:04;7.23;;;1.67;;
47413;SDS011;33163;0.000;0.000;2023-03-14T09:55:36;6.05;;;1.65;;
47413;SDS011;33163;0.000;0.000;2023-03-14T09:58:04;10.32;;;2.13;;
47413;SDS011;33163;0.000;0.000;2023-03-14T10:00:37;5.85;;;2.05;;
47413;SDS011;33163;0.000;0.000;2023-03-14T10:03:12;6.30;;;1.98;;
47413;SDS011;33163;0.000;0.000;2023-03-14T10:05:47;6.43;;;1.77;;
47413;SDS011;33163;0.000;0.000;2023-03-14T10:08:14;5.28;;;1.90;;
47413;SDS011;33163;0.000;0.000;2023-03-14T10:10:43;10.38;;;1.95;;
47413;SDS011;33163;0.000;0.000;2023-03-14T10:13:13;3.35;;;1.33;;
47413;SDS011;33163;0.000;0.000;2023-03-14T10:15:43;8.10;;;2.00;;
47413;SDS011;33163;0.000;0.000;2023-03-14T10:18:14;7.72;;;2.22;;
47413;SDS011;33163;0.000;0.000;2023-03-14T10:20:42;10.05;;;1.80;;
47413;SDS011;33163;0.000;0.000;2023-03-14T10:23:22;7.65;;;2.00;;
47413;SDS011;33163;0.000;0.000;2023-03-14T10:26:01;10.15;;;2.30;;
47413;SDS011;33163;0.000;0.000;2023-03-14T10:28:32;8.73;;;2.30;;
47413;SDS011;33163;0.000;0.000;2023-03-14T10:30:59;6.53;;;2.05;;
47413;SDS011;33163;0.000;0.000;2023-03-14T10:33:27;6.43;;;1.58;;
47413;SDS011;33163;0.000;0.000;2023-03-14T10:35:57;8.80;;;2.25;;
47413;SDS011;33163;0.000;0.000;2023-03-14T10:38:26;8.25;;;2.10;;
47413;SDS011;33163;0.000;0.000;2023-03-14T10:40:54;8.63;;;2.25;;
47413;SDS011;33163;0.000;0.000;2023-03-14T10:43:25;8.05;;;2.22;;
47413;SDS011;33163;0.000;0.000;2023-03-14T10:45:54;11.18;;;2.40;;
47413;SDS011;33163;0.000;0.000;2023-03-14T10:48:24;8.80;;;2.45;;
47413;SDS011;33163;0.000;0.000;2023-03-14T10:50:57;7.85;;;2.20;;
47413;SDS011;33163;0.000;0.000;2023-03-14T10:53:28;11.63;;;2.33;;
47413;SDS011;33163;0.000;0.000;2023-03-14T10:56:02;9.50;;;2.35;;
47413;SDS011;33163;0.000;0.000;2023-03-14T10:58:33;6.47;;;2.00;;
47413;SDS011;33163;0.000;0.000;2023-03-14T11:01:08;6.63;;;1.98;;
47413;SDS011;33163;0.000;0.000;2023-03-14T11:03:45;13.50;;;2.85;;
47413;SDS011;33163;0.000;0.000;2023-03-14T11:06:17;5.95;;;1.88;;
47413;SDS011;33163;0.000;0.000;2023-03-14T11:08:48;9.25;;;2.78;;
47413;SDS011;33163;0.000;0.000;2023-03-14T11:11:24;9.48;;;2.50;;
47413;SDS011;33163;0.000;0.000;2023-03-14T11:13:57;9.13;;;2.13;;
47413;SDS011;33163;0.000;0.000;2023-03-14T11:16:37;12.75;;;2.50;;
47413;SDS011;33163;0.000;0.000;2023-03-14T11:19:20;11.00;;;2.47;;
47413;SDS011;33163;0.000;0.000;2023-03-14T11:22:10;10.55;;;2.88;;
47413;SDS011;33163;0.000;0.000;2023-03-14T11:24:48;8.40;;;2.97;;
47413;SDS011;33163;0.000;0.000;2023-03-14T11:27:39;8.93;;;2.63;;
47413;SDS011;33163;0.000;0.000;2023-03-14T11:30:15;9.80;;;2.70;;
47413;SDS011;33163;0.000;0.000;2023-03-14T11:32:45;10.00;;;2.75;;
47413;SDS011;33163;0.000;0.000;2023-03-14T11:35:17;11.65;;;2.53;;
47413;SDS011;33163;0.000;0.000;2023-03-14T11:37:51;7.57;;;2.15;;
47413;SDS011;33163;0.000;0.000;2023-03-14T11:40:21;10.55;;;2.03;;
47413;SDS011;33163;0.000;0.000;2023-03-14T11:42:51;8.38;;;2.28;;
47413;SDS011;33163;0.000;0.000;2023-03-14T11:48:05;7.40;;;2.10;;
47413;SDS011;33163;0.000;0.000;2023-03-14T11:50:46;9.93;;;2.38;;
47413;SDS011;33163;0.000;0.000;2023-03-14T11:53:19;15.25;;;2.25;;
47413;SDS011;33163;0.000;0.000;2023-03-14T11:56:02;8.50;;;2.05;;
47413;SDS011;33163;0.000;0.000;2023-03-14T11:58:30;7.30;;;1.98;;
47413;SDS011;33163;0.000;0.000;2023-03-14T12:01:05;12.95;;;2.38;;
47413;SDS011;33163;0.000;0.000;2023-03-14T12:03:37;7.60;;;1.83;;
47413;SDS011;33163;0.000;0.000;2023-03-14T12:06:09;7.55;;;2.08;;
47413;SDS011;33163;0.000;0.000;2023-03-14T12:08:42;12.23;;;2.60;;
47413;SDS011;33163;0.000;0.000;2023-03-14T12:11:14;7.63;;;1.95;;
47413;SDS011;33163;0.000;0.000;2023-03-14T12:13:46;9.20;;;2.08;;
47413;SDS011;33163;0.000;0.000;2023-03-14T12:16:31;7.47;;;2.20;;
47413;SDS011;33163;0.000;0.000;2023-03-14T12:19:25;7.60;;;2.40;;
47413;SDS011;33163;0.000;0.000;2023-03-14T12:21:55;13.63;;;2.42;;
47413;SDS011;33163;0.000;0.000;2023-03-14T12:24:25;11.48;;;2.65;;
47413;SDS011;33163;0.000;0.000;2023-03-14T12:26:55;10.10;;;2.13;;
47413;SDS011;33163;0.000;0.000;2023-03-14T12:29:23;9.65;;;2.58;;
47413;SDS011;33163;0.000;0.000;2023-03-14T12:34:47;6.50;;;1.92;;
47413;SDS011;33163;0.000;0.000;2023-03-14T12:37:19;10.95;;;2.10;;
47413;SDS011;33163;0.000;0.000;2023-03-14T12:42:55;10.30;;;1.95;;
47413;SDS011;33163;0.000;0.000;2023-03-14T12:45:25;12.05;;;2.28;;
47413;SDS011;33163;0.000;0.000;2023-03-14T12:48:01;6.43;;;2.10;;
47413;SDS011;33163;0.000;0.000;2023-03-14T12:50:36;8.27;;;1.88;;
47413;SDS011;33163;0.000;0.000;2023-03-14T12:53:20;6.30;;;1.67;;
47413;SDS011;33163;0.000;0.000;2023-03-14T12:56:20;7.95;;;1.80;;
47413;SDS011;33163;0.000;0.000;2023-03-14T12:58:54;4.65;;;1.65;;
47413;SDS011;33163;0.000;0.000;2023-03-14T13:01:46;6.38;;;1.73;;
47413;SDS011;33163;0.000;0.000;2023-03-14T13:04:19;7.68;;;2.05;;
47413;SDS011;33163;0.000;0.000;2023-03-14T13:06:55;6.38;;;2.10;;
47413;SDS011;33163;0.000;0.000;2023-03-14T13:09:34;8.57;;;1.73;;
47413;SDS011;33163;0.000;0.000;2023-03-14T13:12:17;8.73;;;1.80;;
47413;SDS011;33163;0.000;0.000;2023-03-14T13:14:45;12.48;;;2.45;;
47413;SDS011;33163;0.000;0.000;2023-03-14T13:17:15;5.15;;;1.67;;
47413;SDS011;33163;0.000;0.000;2023-03-14T13:19:52;5.07;;;1.73;;
47413;SDS011;33163;0.000;0.000;2023-03-14T13:22:25;5.90;;;1.42;;
47413;SDS011;33163;0.000;0.000;2023-03-14T13:25:00;6.43;;;1.83;;
47413;SDS011;33163;0.000;0.000;2023-03-14T13:27:30;8.88;;;2.22;;
47413;SDS011;33163;0.000;0.000;2023-03-14T13:29:58;6.45;;;1.80;;
47413;SDS011;33163;0.000;0.000;2023-03-14T13:32:30;4.95;;;1.48;;
47413;SDS011;33163;0.000;0.000;2023-03-14T13:34:57;8.57;;;2.15;;
47413;SDS011;33163;0.000;0.000;2023-03-14T13:37:26;8.82;;;1.88;;
47413;SDS011;33163;0.000;0.000;2023-03-14T13:39:53;8.23;;;1.88;;
47413;SDS011;33163;0.000;0.000;2023-03-14T13:42:21;7.47;;;2.08;;
47413;SDS011;33163;0.000;0.000;2023-03-14T13:44:51;5.00;;;1.33;;
47413;SDS011;33163;0.000;0.000;2023-03-14T13:47:20;5.82;;;1.52;;
47413;SDS011;33163;0.000;0.000;2023-03-14T13:49:48;6.18;;;1.60;;
47413;SDS011;33163;0.000;0.000;2023-03-14T13:52:22;7.95;;;1.85;;
47413;SDS011;33163;0.000;0.000;2023-03-14T13:54:54;5.03;;;1.63;;
47413;SDS011;33163;0.000;0.000;2023-03-14T13:57:21;7.15;;;1.80;;
47413;SDS011;33163;0.000;0.000;2023-03-14T13:59:57;9.88;;;2.70;;
47413;SDS011;33163;0.000;0.000;2023-03-14T14:02:26;9.32;;;1.88;;
47413;SDS011;33163;0.000;0.000;2023-03-14T14:04:53;14.77;;;2.35;;
47413;SDS011;33163;0.000;0.000;2023-03-14T14:07:21;5.18;;;1.80;;
47413;SDS011;33163;0.000;0.000;2023-03-14T14:09:50;6.68;;;1.98;;
47413;SDS011;33163;0.000;0.000;2023-03-14T14:12:18;7.70;;;1.58;;
47413;SDS011;33163;0.000;0.000;2023-03-14T14:14:53;6.25;;;1.60;;
47413;SDS011;33163;0.000;0.000;2023-03-14T14:17:24;6.45;;;1.60;;
47413;SDS011;33163;0.000;0.000;2023-03-14T14:19:55;7.72;;;1.92;;
47413;SDS011;33163;0.000;0.000;2023-03-14T14:22:22;7.10;;;1.92;;
47413;SDS011;33163;0.000;0.000;2023-03-14T14:24:51;4.60;;;1.60;;
47413;SDS011;33163;0.000;0.000;2023-03-14T14:27:20;9.13;;;1.83;;
47413;SDS011;33163;0.000;0.000;2023-03-14T14:32:25;6.88;;;1.77;;
47413;SDS011;33163;0.000;0.000;2023-03-14T14:34:57;6.60;;;1.40;;
47413;SDS011;33163;0.000;0.000;2023-03-14T14:37:25;6.40;;;1.80;;
47413;SDS011;33163;0.000;0.000;2023-03-14T14:39:56;8.02;;;1.98;;
47413;SDS011;33163;0.000;0.000;2023-03-14T14:42:25;8.70;;;1.80;;
47413;SDS011;33163;0.000;0.000;2023-03-14T14:44:55;8.98;;;1.92;;
47413;SDS011;33163;0.000;0.000;2023-03-14T14:47:23;7.18;;;1.55;;
47413;SDS011;33163;0.000;0.000;2023-03-14T14:49:52;7.40;;;2.15;;
47413;SDS011;33163;0.000;0.000;2023-03-14T14:52:20;5.00;;;1.60;;
47413;SDS011;33163;0.000;0.000;2023-03-14T14:54:50;9.45;;;1.63;;
47413;SDS011;33163;0.000;0.000;2023-03-14T14:57:22;8.07;;;1.90;;
47413;SDS011;33163;0.000;0.000;2023-03-14T14:59:54;7.32;;;1.60;;
47413;SDS011;33163;0.000;0.000;2023-03-14T15:02:29;6.53;;;1.58;;
47413;SDS011;33163;0.000;0.000;2023-03-14T15:04:59;10.27;;;2.33;;
47413;SDS011;33163;0.000;0.000;2023-03-14T15:07:25;8.35;;;2.00;;
47413;SDS011;33163;0.000;0.000;2023-03-14T15:09:52;5.00;;;1.65;;
47413;SDS011;33163;0.000;0.000;2023-03-14T15:12:19;6.60;;;1.55;;
47413;SDS011;33163;0.000;0.000;2023-03-14T15:14:47;8.07;;;1.73;;
47413;SDS011;33163;0.000;0.000;2023-03-14T15:17:14;7.00;;;1.75;;
47413;SDS011;33163;0.000;0.000;2023-03-14T15:19:41;7.40;;;1.63;;
47413;SDS011;33163;0.000;0.000;2023-03-14T15:22:09;5.70;;;1.63;;
47413;SDS011;33163;0.000;0.000;2023-03-14T15:24:39;11.10;;;1.45;;
47413;SDS011;33163;0.000;0.000;2023-03-14T15:27:08;4.35;;;1.40;;